UNNT/OVB METAR and TAF weather

Enter ICAO airport designator
Station Type Date Time Source
UNNT METAR 2021/04/12 03:30 UTC NOAA

UNNT 120330Z 25005MPS CAVOK 07/M05 Q1033 R25/090070 R16/090070 NOSIG RMK QFE765/1020


Station Type Date Time Source
UNNT Decoded METAR 2021/04/12 03:30 UTC NOAA

Station name not available
Apr 11, 2021 - 11:30 PM EDT / 2021.04.12 0330 UTC
Wind: from the WSW (250 degrees) at 11 MPH (10 KT):0
Visibility: greater than 7 mile(s):0
Temperature: 44 F (7 C)
Dew Point: 23 F (-5 C)
Relative Humidity: 42%
Pressure (altimeter): 30.50 in. Hg (1033 hPa)
ob: UNNT 120330Z 25005MPS CAVOK 07/M05 Q1033 R25/090070 R16/090070 NOSIG RMK QFE765/1020
cycle: 3

Station Type Date Time Source
UNNT TAF 2021/04/12 03:21 UTC NOAA

TAF UNNT 120200Z 1203/1303 23003G08MPS CAVOK
TEMPO 1206/1215 27006G13MPS
FM121500 28003G08MPS 8000 -SHRA BKN040CB
TEMPO 1217/1303 BKN016CB
BECMG 1218/1221 33003G08MPS

Example: see airport list